KFAT/FAT METAR and TAF weather

Enter ICAO airport designator
Station Type Date Time Source
KFAT METAR 2019/05/25 08:53 UTC NOAA

KFAT 250853Z 36003KT 10SM BKN250 18/13 A2985 RMK AO2 SLP106 T01830133 57012


Station Type Date Time Source
KFAT Decoded METAR 2019/05/25 08:53 UTC NOAA

FRESNO AIR TERMINAL, CA, United States (KFAT) 36-47N 119-43W 104M
May 25, 2019 - 04:53 AM EDT / 2019.05.25 0853 UTC
Wind: from the N (360 degrees) at 3 MPH (3 KT):0
Visibility: 10 mile(s):0
Sky conditions: mostly cloudy
Temperature: 64.9 F (18.3 C)
Dew Point: 55.9 F (13.3 C)
Relative Humidity: 72%
Pressure (altimeter): 29.85 in. Hg (1010 hPa)
Pressure tendency: 0.04 inches (1.2 hPa) lower than three hours ago
ob: KFAT 250853Z 36003KT 10SM BKN250 18/13 A2985 RMK AO2 SLP106 T01830133 57012
cycle: 9

Station Type Date Time Source
KFAT TAF 2019/05/25 06:22 UTC NOAA

TAF KFAT 250520Z 2506/2606 31006KT P6SM FEW110 SCT250
FM251500 13006KT P6SM FEW060 SCT110 BKN250
FM251800 23007KT P6SM FEW020 SCT060 BKN110
FM252100 22008KT P6SM VCTS SCT020CB BKN060 OVC110
FM260300 29008KT P6SM SCT020 BKN060 OVC110

Example: see airport list